UAFZ weather

Kazarman Airport
Kazarman, Jalal-Abad Region, Kyrgyzstan

Public forecast

Using degrees Celsius for public forecast. Weather courtesy of forecast.io.

METAR (pilot weather report)

Closest report is Osh Airport, 74.3 nm (137.7 km) SW. Retrieved 2019/03/26 13:30 UTC (21 minutes ago):

UCFO 261330Z 26005MPS 9999 FEW050CB BKN133 19/03 Q1015 R12/09//95 TEMPO 25007G12MPS

TAF (pilot weather forecast)

Closest forecast is Osh Airport, 74.3 nm (137.7 km) SW. Retrieved 2019/03/26 12:00 UTC (2 hours ago):

TAF UCFO 261046Z 2612/2712 17005MPS 6000 SCT050CB BKN100 TEMPO 2612/2618 26007G12MPS 2000 BR FU SCT030CB PROB40 TEMPO 2612/2618 TS TEMPO 2618/2624 09005MPS 2500 FU BKN030CB BECMG 2702/2704 27005MPS 6000 NSW